createdAt,value
2022-10-06T00:00:01.056Z,0.70
2022-10-06T00:02:31.478Z,0.50
2022-10-06T00:05:01.734Z,0.73
2022-10-06T00:07:31.995Z,1.02
2022-10-06T00:10:02.204Z,0.82
2022-10-06T00:12:32.407Z,0.60
2022-10-06T00:15:05.202Z,0.38
2022-10-06T00:17:35.314Z,0.50
2022-10-06T00:20:05.577Z,0.47
2022-10-06T00:22:37.729Z,0.63
2022-10-06T00:25:10.267Z,0.70
2022-10-06T00:27:43.382Z,0.40
2022-10-06T00:30:19.832Z,0.40
2022-10-06T00:32:56.872Z,0.52
2022-10-06T00:35:29.400Z,0.40
2022-10-06T00:37:59.655Z,0.52
2022-10-06T00:40:30.736Z,0.70
2022-10-06T00:43:03.947Z,0.95
2022-10-06T00:45:45.040Z,0.40
2022-10-06T00:48:22.016Z,0.60
2022-10-06T00:50:52.822Z,0.57
2022-10-06T00:53:24.081Z,1.02
2022-10-06T00:55:54.553Z,0.50
2022-10-06T00:58:25.420Z,0.57
2022-10-06T01:00:59.386Z,0.50
2022-10-06T01:03:34.413Z,0.60
2022-10-06T01:06:05.645Z,0.40
2022-10-06T01:08:36.509Z,0.47
2022-10-06T01:11:06.706Z,0.60
2022-10-06T01:13:37.303Z,0.60
2022-10-06T01:16:19.655Z,0.75
2022-10-06T01:18:51.929Z,0.60
2022-10-06T01:21:30.706Z,0.40
2022-10-06T01:24:05.256Z,0.75
2022-10-06T01:29:07.485Z,0.55
2022-10-06T01:31:37.968Z,0.60
2022-10-06T01:34:08.164Z,0.35
2022-10-06T01:36:38.377Z,0.80
2022-10-06T01:39:11.536Z,0.85
2022-10-06T01:41:41.679Z,0.65
2022-10-06T01:44:11.742Z,0.55
2022-10-06T01:46:41.934Z,0.50
2022-10-06T01:49:12.157Z,0.77
2022-10-06T01:51:42.313Z,0.60
2022-10-06T01:54:15.023Z,0.40
2022-10-06T01:56:46.340Z,0.45
2022-10-06T01:59:16.603Z,1.25
2022-10-06T02:01:46.808Z,0.45
2022-10-06T02:04:17.238Z,0.40
2022-10-06T02:06:47.544Z,0.93
2022-10-06T02:09:20.377Z,0.52
2022-10-06T02:11:50.599Z,0.60
2022-10-06T02:14:21.022Z,0.57
2022-10-06T02:16:51.182Z,0.50
2022-10-06T02:19:21.323Z,0.38
2022-10-06T02:21:51.532Z,0.77
2022-10-06T02:24:24.377Z,0.60
2022-10-06T02:26:54.514Z,0.63
2022-10-06T02:29:25.101Z,0.70
2022-10-06T02:31:55.865Z,0.93
2022-10-06T02:34:26.150Z,0.57
2022-10-06T02:36:56.865Z,0.50
2022-10-06T02:39:29.631Z,0.68
2022-10-06T02:41:59.865Z,0.50
2022-10-06T02:44:30.017Z,0.80
2022-10-06T02:47:00.281Z,0.65
2022-10-06T02:49:31.562Z,0.35
2022-10-06T02:52:01.736Z,0.35
2022-10-06T02:54:35.555Z,0.75
2022-10-06T02:57:05.923Z,0.47
2022-10-06T02:59:36.624Z,0.45
2022-10-06T03:02:09.300Z,1.05
2022-10-06T03:04:39.609Z,0.40
2022-10-06T03:07:09.791Z,0.80
2022-10-06T03:09:42.552Z,1.00
2022-10-06T03:12:12.964Z,0.65
2022-10-06T03:14:43.184Z,0.32
2022-10-06T03:17:16.963Z,0.98
2022-10-06T03:19:47.076Z,0.60
2022-10-06T03:22:17.355Z,0.80
2022-10-06T03:24:50.197Z,0.88
2022-10-06T03:27:20.440Z,0.73
2022-10-06T03:29:51.738Z,0.90
2022-10-06T03:32:23.812Z,0.43
2022-10-06T03:34:54.060Z,0.70
2022-10-06T03:37:24.410Z,0.47
2022-10-06T03:39:57.764Z,1.00
2022-10-06T03:42:28.312Z,0.88
2022-10-06T03:44:58.499Z,0.50
2022-10-06T03:47:28.805Z,0.55
2022-10-06T03:49:58.944Z,0.65
2022-10-06T03:52:29.080Z,0.40
2022-10-06T03:55:01.804Z,0.40
2022-10-06T03:57:31.952Z,0.60
2022-10-06T04:00:03.021Z,0.73
2022-10-06T04:02:33.199Z,0.30
2022-10-06T04:05:03.328Z,0.50
2022-10-06T04:07:33.469Z,0.30
2022-10-06T04:10:06.677Z,0.57
2022-10-06T04:12:36.764Z,0.80
2022-10-06T04:15:07.778Z,0.40
2022-10-06T04:17:37.856Z,0.65
2022-10-06T04:20:09.411Z,1.00
2022-10-06T04:22:40.117Z,0.80
2022-10-06T04:25:13.344Z,0.75
2022-10-06T04:27:43.462Z,0.30
2022-10-06T04:30:15.160Z,0.50
2022-10-06T04:32:45.813Z,0.52
2022-10-06T04:35:16.216Z,0.50
2022-10-06T04:37:46.722Z,0.60
2022-10-06T04:40:19.993Z,0.30
2022-10-06T04:42:50.038Z,0.40
2022-10-06T04:45:20.275Z,0.40
2022-10-06T04:47:52.468Z,0.30
2022-10-06T04:50:22.734Z,0.47
2022-10-06T04:52:52.951Z,0.68
2022-10-06T04:55:25.844Z,0.70
2022-10-06T04:57:57.831Z,0.50
2022-10-06T05:00:28.733Z,0.40
2022-10-06T05:02:58.995Z,0.38
2022-10-06T05:05:29.133Z,0.30
2022-10-06T05:07:59.173Z,0.52
2022-10-06T05:10:32.007Z,0.30
2022-10-06T05:13:03.926Z,0.30
2022-10-06T05:15:34.104Z,0.30
2022-10-06T05:18:04.327Z,0.30
2022-10-06T05:20:34.579Z,0.40
2022-10-06T05:23:05.053Z,0.38
2022-10-06T05:25:37.851Z,0.30
2022-10-06T05:28:08.085Z,0.47
2022-10-06T05:30:38.367Z,0.38
2022-10-06T05:33:12.326Z,0.30
2022-10-06T05:35:42.552Z,0.30
2022-10-06T05:38:12.719Z,0.30
2022-10-06T05:40:45.533Z,0.50
2022-10-06T05:43:15.792Z,0.30
2022-10-06T05:45:56.532Z,0.35
2022-10-06T05:48:27.644Z,0.40
2022-10-06T05:51:06.107Z,0.50
2022-10-06T05:53:38.309Z,0.30
2022-10-06T05:56:15.026Z,0.50
2022-10-06T05:58:48.791Z,0.30
2022-10-06T06:01:21.353Z,0.30
2022-10-06T06:03:53.352Z,0.60
2022-10-06T06:06:27.270Z,0.30
2022-10-06T06:09:00.002Z,0.30
2022-10-06T06:11:34.445Z,0.30
2022-10-06T06:14:07.336Z,0.30
2022-10-06T06:16:37.136Z,0.30
2022-10-06T06:19:08.170Z,0.30
2022-10-06T06:21:38.484Z,0.30
2022-10-06T06:24:09.678Z,0.40
2022-10-06T06:26:42.491Z,0.30
2022-10-06T06:29:12.601Z,0.30
2022-10-06T06:31:44.532Z,0.93
2022-10-06T06:34:14.817Z,0.45
2022-10-06T06:36:47.723Z,0.30
2022-10-06T06:39:20.090Z,0.30
2022-10-06T06:41:54.027Z,0.30
2022-10-06T06:44:25.486Z,0.32
2022-10-06T06:46:56.016Z,0.30
2022-10-06T06:49:26.170Z,0.30
2022-10-06T06:51:56.351Z,0.30
2022-10-06T06:54:27.800Z,0.30
2022-10-06T06:57:00.696Z,0.40
2022-10-06T06:59:34.214Z,0.30
2022-10-06T07:02:04.860Z,0.40
2022-10-06T07:04:37.448Z,0.30
2022-10-06T07:07:07.515Z,0.30
2022-10-06T07:09:37.683Z,0.30
2022-10-06T07:12:11.663Z,0.30
2022-10-06T07:15:02.002Z,0.47
2022-10-06T07:17:44.362Z,0.30
2022-10-06T07:20:26.956Z,0.30
2022-10-06T07:23:09.588Z,0.30
2022-10-06T07:25:39.860Z,0.30
2022-10-06T07:28:12.578Z,0.43
2022-10-06T07:30:43.060Z,0.68
2022-10-06T07:33:14.810Z,0.40
2022-10-06T07:35:44.918Z,0.30
2022-10-06T07:38:15.168Z,0.30
2022-10-06T07:41:07.335Z,0.30
2022-10-06T07:43:38.585Z,0.30
2022-10-06T07:46:13.361Z,0.30
2022-10-06T07:48:44.721Z,0.30
2022-10-06T07:51:18.134Z,0.30
2022-10-06T07:53:50.305Z,0.30
2022-10-06T07:56:20.940Z,0.35
2022-10-06T07:58:54.064Z,0.30
2022-10-06T08:01:25.795Z,0.57
2022-10-06T08:03:56.302Z,0.40
2022-10-06T08:06:26.889Z,0.77
2022-10-06T08:08:57.268Z,0.30
2022-10-06T08:11:27.798Z,0.73
2022-10-06T08:14:01.191Z,0.50
2022-10-06T08:16:32.331Z,0.30
2022-10-06T08:19:03.266Z,0.30
2022-10-06T08:21:36.750Z,0.40
2022-10-06T08:24:07.362Z,0.30
2022-10-06T08:26:37.759Z,0.40
2022-10-06T08:29:11.031Z,0.40
2022-10-06T08:31:41.529Z,0.30
2022-10-06T08:34:12.430Z,0.30
2022-10-06T08:36:56.977Z,0.30
2022-10-06T08:39:34.396Z,0.35
2022-10-06T08:42:04.698Z,0.30
2022-10-06T08:44:45.246Z,0.88
2022-10-06T08:47:22.780Z,0.30
2022-10-06T08:49:55.692Z,0.40
2022-10-06T08:52:52.728Z,0.40
2022-10-06T08:55:34.508Z,0.30
2022-10-06T08:58:33.321Z,0.30
2022-10-06T09:01:20.153Z,0.30
2022-10-06T09:03:53.285Z,0.30
2022-10-06T09:06:53.519Z,0.30
2022-10-06T09:09:45.789Z,0.30
2022-10-06T09:12:23.850Z,0.40
2022-10-06T09:14:58.839Z,0.30
2022-10-06T09:17:38.239Z,0.40
2022-10-06T09:20:20.786Z,0.30
2022-10-06T09:22:53.467Z,0.30
2022-10-06T09:25:28.462Z,0.30
2022-10-06T09:28:01.403Z,0.75
2022-10-06T09:30:31.711Z,0.30
2022-10-06T09:33:08.024Z,0.30
2022-10-06T09:35:38.175Z,0.50
2022-10-06T09:38:11.709Z,0.30
2022-10-06T09:40:51.341Z,0.32
2022-10-06T09:43:28.325Z,0.30
2022-10-06T09:46:00.507Z,0.50
2022-10-06T09:48:33.412Z,0.63
2022-10-06T09:51:15.292Z,0.40
2022-10-06T09:53:46.629Z,0.30
2022-10-06T09:56:21.554Z,0.40
2022-10-06T09:59:00.623Z,0.40
2022-10-06T10:01:33.924Z,0.30
2022-10-06T10:04:20.448Z,0.43
2022-10-06T10:06:52.065Z,0.30
2022-10-06T10:09:32.554Z,0.68
2022-10-06T10:12:28.369Z,0.30
2022-10-06T10:15:02.359Z,0.30
2022-10-06T10:17:47.900Z,0.50
2022-10-06T10:20:37.276Z,1.08
2022-10-06T10:23:28.610Z,0.30
2022-10-06T10:26:29.179Z,0.50
2022-10-06T10:29:47.581Z,0.30
2022-10-06T10:32:23.993Z,0.30
2022-10-06T10:35:16.843Z,0.40
2022-10-06T10:37:54.625Z,0.60
2022-10-06T10:40:40.535Z,0.30
2022-10-06T10:43:29.607Z,0.30
2022-10-06T10:46:05.482Z,0.30
2022-10-06T10:48:43.336Z,0.70
2022-10-06T10:51:22.313Z,0.30
2022-10-06T10:54:00.612Z,0.30
2022-10-06T10:56:31.142Z,0.30
2022-10-06T10:59:09.963Z,0.40
2022-10-06T11:01:46.411Z,0.30
2022-10-06T11:04:17.648Z,0.30
2022-10-06T11:07:12.226Z,0.45
2022-10-06T11:09:55.516Z,0.45
2022-10-06T11:12:43.324Z,0.30
2022-10-06T11:15:23.723Z,0.30
2022-10-06T11:17:56.920Z,0.43
2022-10-06T11:20:44.286Z,0.40
2022-10-06T11:23:53.670Z,0.50
2022-10-06T11:27:08.409Z,0.20
2022-10-06T11:29:51.767Z,0.35
2022-10-06T11:32:30.939Z,0.30
2022-10-06T11:35:01.587Z,0.30
2022-10-06T11:37:42.125Z,0.30
2022-10-06T11:40:38.779Z,0.50
2022-10-06T11:43:20.909Z,0.30
2022-10-06T11:46:02.275Z,0.30
2022-10-06T11:48:35.565Z,0.30
2022-10-06T11:51:32.511Z,0.40
2022-10-06T11:54:02.991Z,0.50
2022-10-06T11:56:42.567Z,0.30
2022-10-06T11:59:31.869Z,0.30
2022-10-06T12:02:03.992Z,0.28
2022-10-06T12:04:34.266Z,0.40
2022-10-06T12:07:06.426Z,0.40
2022-10-06T12:09:54.657Z,0.30
2022-10-06T12:13:07.191Z,0.30
2022-10-06T12:19:22.953Z,0.30
2022-10-06T12:22:01.232Z,0.30
2022-10-06T12:24:41.962Z,0.30
2022-10-06T12:27:44.512Z,0.30
2022-10-06T12:30:26.582Z,0.30
2022-10-06T12:33:03.795Z,0.63
2022-10-06T12:35:36.349Z,0.57
2022-10-06T12:38:08.158Z,0.30
2022-10-06T12:40:55.675Z,0.30
2022-10-06T12:43:57.369Z,0.30
2022-10-06T12:46:49.473Z,0.50
2022-10-06T12:49:48.867Z,0.30
2022-10-06T12:52:44.958Z,0.40
2022-10-06T12:55:45.288Z,0.30
2022-10-06T12:58:23.147Z,0.35
2022-10-06T13:00:53.906Z,0.30
2022-10-06T13:03:28.468Z,0.30
2022-10-06T13:08:34.904Z,0.40
2022-10-06T13:11:16.919Z,0.30
2022-10-06T13:13:52.143Z,0.30
2022-10-06T13:16:26.475Z,0.40
2022-10-06T13:19:00.285Z,0.30
2022-10-06T13:21:33.715Z,0.30
2022-10-06T13:24:03.997Z,0.30
2022-10-06T13:26:34.945Z,0.30
2022-10-06T13:29:05.595Z,0.30
2022-10-06T13:31:38.518Z,0.52
2022-10-06T13:34:13.000Z,1.02
2022-10-06T13:39:19.900Z,0.30
2022-10-06T13:41:53.224Z,0.38
2022-10-06T13:44:43.509Z,0.40
2022-10-06T13:47:19.693Z,0.40
2022-10-06T13:49:55.830Z,0.35
2022-10-06T13:52:36.753Z,0.30
2022-10-06T13:55:09.496Z,0.35
2022-10-06T13:57:42.330Z,0.38
2022-10-06T14:00:24.608Z,0.40
2022-10-06T14:02:59.022Z,0.30
2022-10-06T14:08:20.309Z,0.30
2022-10-06T14:10:54.590Z,0.30
2022-10-06T14:13:29.297Z,0.40
2022-10-06T14:16:03.515Z,0.32
2022-10-06T14:18:41.713Z,0.30
2022-10-06T14:21:22.992Z,0.30
2022-10-06T14:23:56.897Z,0.30
2022-10-06T14:26:29.930Z,0.60
2022-10-06T14:29:01.489Z,0.40
2022-10-06T14:31:33.484Z,0.40
2022-10-06T14:34:04.874Z,0.30
2022-10-06T14:36:38.387Z,0.30
2022-10-06T14:39:14.910Z,0.30
2022-10-06T14:41:45.646Z,0.30
2022-10-06T14:44:16.412Z,0.52
2022-10-06T14:46:50.925Z,0.50
2022-10-06T14:51:52.296Z,0.30
2022-10-06T14:54:25.607Z,0.32
2022-10-06T14:56:56.301Z,0.30
2022-10-06T14:59:26.696Z,0.30
2022-10-06T15:01:57.156Z,0.30
2022-10-06T15:04:28.226Z,0.30
2022-10-06T15:07:10.995Z,0.30
2022-10-06T15:09:44.027Z,0.40
2022-10-06T15:12:14.680Z,0.77
2022-10-06T15:14:45.353Z,0.30
2022-10-06T15:17:15.726Z,0.40
2022-10-06T15:19:46.195Z,0.30
2022-10-06T15:22:16.581Z,0.28
2022-10-06T15:24:51.577Z,0.38
2022-10-06T15:27:34.346Z,0.40
2022-10-06T15:30:04.851Z,0.60
2022-10-06T15:32:35.556Z,0.32
2022-10-06T15:35:06.036Z,0.85
2022-10-06T15:37:36.411Z,0.50
2022-10-06T15:40:10.728Z,0.30
2022-10-06T15:42:41.018Z,0.30
2022-10-06T15:45:13.289Z,0.30
2022-10-06T15:47:43.661Z,0.30
2022-10-06T15:50:18.641Z,0.30
2022-10-06T15:52:49.963Z,0.35
2022-10-06T15:55:22.900Z,0.30
2022-10-06T15:57:53.248Z,0.30
2022-10-06T16:00:23.884Z,0.40
2022-10-06T16:02:54.287Z,0.30
2022-10-06T16:05:46.960Z,0.30
2022-10-06T16:08:17.374Z,0.60
2022-10-06T16:10:56.214Z,0.55
2022-10-06T16:13:26.592Z,0.30
2022-10-06T16:15:57.126Z,0.40
2022-10-06T16:18:28.761Z,0.40
2022-10-06T16:20:59.588Z,0.38
2022-10-06T16:23:29.959Z,0.30
2022-10-06T16:26:04.839Z,0.45
2022-10-06T16:28:35.265Z,0.30
2022-10-06T16:31:06.400Z,0.50
2022-10-06T16:33:37.008Z,0.45
2022-10-06T16:36:08.138Z,0.40
2022-10-06T16:38:38.536Z,0.30
2022-10-06T16:41:12.372Z,0.30
2022-10-06T16:43:46.533Z,0.60
2022-10-06T16:46:19.231Z,0.30
2022-10-06T16:48:51.708Z,0.40
2022-10-06T16:51:25.529Z,0.38
2022-10-06T16:53:58.503Z,0.50
2022-10-06T16:56:33.865Z,0.80
2022-10-06T16:59:07.580Z,0.40
2022-10-06T17:01:41.686Z,0.60
2022-10-06T17:04:14.898Z,0.50
2022-10-06T17:06:48.091Z,0.60
2022-10-06T17:09:21.195Z,0.30
2022-10-06T17:11:56.862Z,0.30
2022-10-06T17:14:28.033Z,0.30
2022-10-06T17:16:59.465Z,0.30
2022-10-06T17:19:33.175Z,0.43
2022-10-06T17:22:03.822Z,0.30
2022-10-06T17:24:34.202Z,0.30
2022-10-06T17:27:07.643Z,0.30
2022-10-06T17:29:38.207Z,0.30
2022-10-06T17:32:08.939Z,0.40
2022-10-06T17:34:39.979Z,0.35
2022-10-06T17:37:10.407Z,0.40
2022-10-06T17:39:46.063Z,0.50
2022-10-06T17:42:19.769Z,1.17
2022-10-06T17:44:50.656Z,0.60
2022-10-06T17:47:20.810Z,1.88
2022-10-06T17:49:51.075Z,0.93
2022-10-06T17:52:24.212Z,0.63
2022-10-06T17:54:55.082Z,1.33
2022-10-06T17:57:29.047Z,1.10
2022-10-06T17:59:59.441Z,1.08
2022-10-06T18:02:29.960Z,0.85
2022-10-06T18:05:00.254Z,0.57
2022-10-06T18:07:30.668Z,0.95
2022-10-06T18:10:13.278Z,1.35
2022-10-06T18:12:46.659Z,1.13
2022-10-06T18:15:17.085Z,0.60
2022-10-06T18:17:52.008Z,1.15
2022-10-06T18:20:22.188Z,1.15
2022-10-06T18:22:53.176Z,1.23
2022-10-06T18:25:26.834Z,0.82
2022-10-06T18:27:59.817Z,1.02
2022-10-06T18:30:31.144Z,2.50
2022-10-06T18:36:14.759Z,0.88
2022-10-06T18:38:47.643Z,1.20
2022-10-06T18:41:21.464Z,0.73
2022-10-06T18:43:54.545Z,0.97
2022-10-06T18:46:37.840Z,0.50
2022-10-06T18:49:13.149Z,0.90
2022-10-06T18:51:46.123Z,1.13
2022-10-06T18:54:18.682Z,0.73
2022-10-06T18:56:51.887Z,0.70
2022-10-06T18:59:30.185Z,0.80
2022-10-06T19:02:02.408Z,0.73
2022-10-06T19:04:33.060Z,0.40
2022-10-06T19:07:03.282Z,1.30
2022-10-06T19:09:33.626Z,0.93
2022-10-06T19:12:04.224Z,0.82
2022-10-06T19:14:43.133Z,2.22
2022-10-06T19:17:15.534Z,1.13
2022-10-06T19:19:51.409Z,0.70
2022-10-06T19:22:24.841Z,0.88
2022-10-06T19:24:55.666Z,1.35
2022-10-06T19:27:29.069Z,1.83
2022-10-06T19:30:01.871Z,0.70
2022-10-06T19:32:34.553Z,0.80
2022-10-06T19:35:09.942Z,0.90
2022-10-06T19:37:41.136Z,1.23
2022-10-06T19:40:11.860Z,1.13
2022-10-06T19:42:48.867Z,0.90
2022-10-06T19:45:22.105Z,1.27
2022-10-06T19:47:52.281Z,1.13
2022-10-06T19:50:22.616Z,1.63
2022-10-06T19:52:52.774Z,1.52
2022-10-06T19:55:23.462Z,0.90
2022-10-06T19:57:54.037Z,1.80
2022-10-06T20:00:26.933Z,1.55
2022-10-06T20:02:57.120Z,0.70
2022-10-06T20:05:27.344Z,1.30
2022-10-06T20:07:57.988Z,1.35
2022-10-06T20:10:28.053Z,1.88
2022-10-06T20:12:58.827Z,1.08
2022-10-06T20:15:32.352Z,1.48
2022-10-06T20:18:04.477Z,0.95
2022-10-06T20:20:35.529Z,1.73
2022-10-06T20:23:07.456Z,1.40
2022-10-06T20:25:37.654Z,1.58
2022-10-06T20:28:09.504Z,1.27
2022-10-06T20:30:49.564Z,1.40
2022-10-06T20:33:19.894Z,1.35
2022-10-06T20:35:50.050Z,1.40
2022-10-06T20:38:40.226Z,1.65
2022-10-06T20:41:07.806Z,1.48
2022-10-06T20:43:38.130Z,1.60
2022-10-06T20:46:11.051Z,1.50
2022-10-06T20:48:41.633Z,1.45
2022-10-06T20:51:15.671Z,0.98
2022-10-06T20:53:45.874Z,0.95
2022-10-06T20:56:16.407Z,1.33
2022-10-06T20:58:46.636Z,1.30
2022-10-06T21:01:20.777Z,0.60
2022-10-06T21:03:54.809Z,1.05
2022-10-06T21:06:27.091Z,1.27
2022-10-06T21:08:58.745Z,1.30
2022-10-06T21:11:29.393Z,0.85
2022-10-06T21:13:59.598Z,1.35
2022-10-06T21:16:35.097Z,0.95
2022-10-06T21:19:08.189Z,1.17
2022-10-06T21:21:40.162Z,1.02
2022-10-06T21:24:11.173Z,1.05
2022-10-06T21:26:42.646Z,0.82
2022-10-06T21:29:15.768Z,0.98
2022-10-06T21:31:49.457Z,0.88
2022-10-06T21:34:19.689Z,2.00
2022-10-06T21:36:50.098Z,1.80
2022-10-06T21:39:20.417Z,1.45
2022-10-06T21:41:50.624Z,1.08
2022-10-06T21:44:21.964Z,0.80
2022-10-06T21:46:57.167Z,0.73
2022-10-06T21:49:28.698Z,1.00
2022-10-06T21:52:04.841Z,1.80
2022-10-06T21:54:35.799Z,1.30
2022-10-06T21:57:08.188Z,1.00
2022-10-06T21:59:38.363Z,0.95
2022-10-06T22:02:11.332Z,1.38
2022-10-06T22:04:41.949Z,1.42
2022-10-06T22:07:12.101Z,1.33
2022-10-06T22:09:42.226Z,0.60
2022-10-06T22:12:12.705Z,1.55
2022-10-06T22:14:42.894Z,1.02
2022-10-06T22:17:15.686Z,1.05
2022-10-06T22:19:45.857Z,1.40
2022-10-06T22:22:15.987Z,1.42
2022-10-06T22:24:46.128Z,0.70
2022-10-06T22:27:16.277Z,0.80
2022-10-06T22:29:46.514Z,1.88
2022-10-06T22:32:19.792Z,1.25
2022-10-06T22:34:50.036Z,1.33
2022-10-06T22:37:20.159Z,1.25
2022-10-06T22:39:50.487Z,2.10
2022-10-06T22:42:20.617Z,1.92
2022-10-06T22:44:50.751Z,0.98
2022-10-06T22:47:23.494Z,1.25
2022-10-06T22:49:53.750Z,1.73
2022-10-06T22:52:24.346Z,1.90
2022-10-06T22:54:54.599Z,1.10
2022-10-06T22:57:24.910Z,1.35
2022-10-06T22:59:55.090Z,1.00
2022-10-06T23:02:27.751Z,0.88
2022-10-06T23:04:57.913Z,1.13
2022-10-06T23:07:28.048Z,1.10
2022-10-06T23:09:58.299Z,1.08
2022-10-06T23:12:28.448Z,1.33
2022-10-06T23:14:58.685Z,0.90
2022-10-06T23:17:31.344Z,1.63
2022-10-06T23:20:01.543Z,1.92
2022-10-06T23:22:31.679Z,1.40
2022-10-06T23:25:01.934Z,1.10
2022-10-06T23:27:32.198Z,0.82
2022-10-06T23:30:02.536Z,1.65
2022-10-06T23:32:37.637Z,1.08
2022-10-06T23:35:10.209Z,1.10
2022-10-06T23:37:41.294Z,1.13
2022-10-06T23:40:13.376Z,1.05
2022-10-06T23:42:43.446Z,1.40
2022-10-06T23:45:14.152Z,1.27
2022-10-06T23:47:47.228Z,0.93
2022-10-06T23:50:17.630Z,1.05
2022-10-06T23:52:47.806Z,1.13
2022-10-06T23:55:18.281Z,1.40
2022-10-06T23:57:48.534Z,1.55
